createdAt,value
2024-03-12T00:01:20.803Z,19.20
2024-03-12T00:03:50.655Z,17.83
2024-03-12T00:06:21.240Z,18.45
2024-03-12T00:08:49.909Z,17.63
2024-03-12T00:11:18.593Z,17.75
2024-03-12T00:13:47.820Z,18.30
2024-03-12T00:16:18.775Z,17.33
2024-03-12T00:18:49.190Z,17.48
2024-03-12T00:21:19.845Z,17.13
2024-03-12T00:23:49.136Z,17.70
2024-03-12T00:26:19.061Z,18.42
2024-03-12T00:28:49.415Z,16.40
2024-03-12T00:31:18.751Z,17.70
2024-03-12T00:33:48.989Z,17.05
2024-03-12T00:36:19.141Z,17.27
2024-03-12T00:38:47.984Z,16.88
2024-03-12T00:41:16.830Z,17.65
2024-03-12T00:43:46.755Z,16.33
2024-03-12T00:46:15.336Z,17.10
2024-03-12T00:48:44.182Z,17.33
2024-03-12T00:51:12.920Z,16.30
2024-03-12T00:53:42.873Z,16.58
2024-03-12T00:56:11.609Z,15.13
2024-03-12T00:58:40.549Z,17.17
2024-03-12T01:01:16.383Z,15.80
2024-03-12T01:03:48.276Z,16.02
2024-03-12T01:06:16.922Z,15.57
2024-03-12T01:08:47.471Z,15.80
2024-03-12T01:11:16.096Z,15.85
2024-03-12T01:13:45.788Z,15.48
2024-03-12T01:16:16.212Z,15.20
2024-03-12T01:18:44.996Z,15.27
2024-03-12T01:21:14.349Z,15.10
2024-03-12T01:23:44.316Z,14.90
2024-03-12T01:26:14.329Z,16.33
2024-03-12T01:28:42.845Z,16.30
2024-03-12T01:31:11.517Z,13.98
2024-03-12T01:33:41.144Z,15.23
2024-03-12T01:36:20.229Z,14.38
2024-03-12T01:38:50.503Z,14.27
2024-03-12T01:41:21.737Z,16.23
2024-03-12T01:44:00.620Z,14.05
2024-03-12T01:46:30.636Z,14.18
2024-03-12T01:49:00.121Z,13.73
2024-03-12T01:51:30.111Z,14.80
2024-03-12T01:53:58.758Z,14.18
2024-03-12T01:56:29.277Z,13.57
2024-03-12T01:58:58.747Z,14.70
2024-03-12T02:01:28.025Z,14.20
2024-03-12T02:03:57.665Z,14.27
2024-03-12T02:06:26.462Z,14.07
2024-03-12T02:08:55.895Z,13.82
2024-03-12T02:11:24.934Z,13.85
2024-03-12T02:13:55.066Z,14.93
2024-03-12T02:16:24.156Z,13.65
2024-03-12T02:18:53.769Z,13.80
2024-03-12T02:21:22.570Z,12.95
2024-03-12T02:23:54.561Z,13.88
2024-03-12T02:26:23.189Z,13.30
2024-03-12T02:28:51.797Z,13.70
2024-03-12T02:31:20.986Z,12.57
2024-03-12T02:33:49.717Z,11.98
2024-03-12T02:36:21.477Z,13.02
2024-03-12T02:38:52.032Z,13.38
2024-03-12T02:41:23.531Z,12.55
2024-03-12T02:43:52.964Z,12.27
2024-03-12T02:46:23.808Z,12.73
2024-03-12T02:48:53.868Z,12.40
2024-03-12T02:51:25.220Z,13.45
2024-03-12T02:53:55.702Z,12.77
2024-03-12T02:56:24.578Z,12.20
2024-03-12T02:58:53.156Z,12.95
2024-03-12T03:01:22.102Z,12.63
2024-03-12T03:03:53.399Z,12.65
2024-03-12T03:06:22.163Z,12.98
2024-03-12T03:08:50.894Z,12.02
2024-03-12T03:11:21.154Z,12.40
2024-03-12T03:13:49.764Z,12.27
2024-03-12T03:16:18.697Z,12.07
2024-03-12T03:18:46.254Z,11.88
2024-03-12T03:21:15.456Z,12.02
2024-03-12T03:23:44.229Z,12.52
2024-03-12T03:26:13.334Z,12.40
2024-03-12T03:28:43.542Z,11.40
2024-03-12T03:31:13.086Z,11.90
2024-03-12T03:33:42.743Z,11.20
2024-03-12T03:36:11.726Z,12.10
2024-03-12T03:38:41.668Z,11.45
2024-03-12T03:41:11.769Z,13.27
2024-03-12T03:43:44.362Z,11.90
2024-03-12T03:46:13.305Z,11.48
2024-03-12T03:48:42.007Z,10.95
2024-03-12T03:51:11.364Z,11.35
2024-03-12T03:53:41.612Z,10.43
2024-03-12T03:56:16.937Z,11.32
2024-03-12T03:58:47.384Z,10.10
2024-03-12T04:01:16.775Z,10.20
2024-03-12T04:03:46.008Z,10.75
2024-03-12T04:06:14.692Z,11.23
2024-03-12T04:08:44.243Z,11.30
2024-03-12T04:11:13.047Z,11.35
2024-03-12T04:13:42.007Z,10.85
2024-03-12T04:16:12.318Z,11.00
2024-03-12T04:18:41.026Z,11.52
2024-03-12T04:21:09.749Z,10.13
2024-03-12T04:23:38.472Z,10.98
2024-03-12T04:26:07.670Z,10.38
2024-03-12T04:28:37.711Z,10.35
2024-03-12T04:31:08.339Z,10.60
2024-03-12T04:33:38.569Z,10.27
2024-03-12T04:36:09.064Z,10.50
2024-03-12T04:38:37.604Z,10.23
2024-03-12T04:41:06.244Z,10.45
2024-03-12T04:43:35.075Z,10.60
2024-03-12T04:46:02.725Z,9.55
2024-03-12T04:48:31.441Z,9.52
2024-03-12T04:51:01.466Z,9.38
2024-03-12T04:53:30.023Z,9.45
2024-03-12T04:55:59.226Z,9.90
2024-03-12T04:58:27.979Z,10.13
2024-03-12T05:00:56.604Z,9.23
2024-03-12T05:03:25.211Z,9.68
2024-03-12T05:05:53.660Z,9.25
2024-03-12T05:08:23.635Z,9.85
2024-03-12T05:10:52.202Z,9.50
2024-03-12T05:13:22.771Z,9.88
2024-03-12T05:15:52.072Z,9.73
2024-03-12T05:18:21.232Z,8.60
2024-03-12T05:20:52.327Z,9.18
2024-03-12T05:23:22.444Z,9.38
2024-03-12T05:25:52.629Z,8.93
2024-03-12T05:28:21.956Z,9.13
2024-03-12T05:30:51.029Z,8.55
2024-03-12T05:33:27.615Z,8.88
2024-03-12T05:35:56.369Z,8.50
2024-03-12T05:38:34.211Z,8.57
2024-03-12T05:41:26.821Z,9.48
2024-03-12T05:44:13.374Z,9.15
2024-03-12T05:46:59.678Z,8.98
2024-03-12T05:49:28.503Z,9.23
2024-03-12T05:51:57.587Z,9.30
2024-03-12T05:54:27.680Z,8.52
2024-03-12T05:56:56.337Z,8.57
2024-03-12T05:59:27.348Z,8.95
2024-03-12T06:01:56.229Z,8.50
2024-03-12T06:04:25.135Z,8.55
2024-03-12T06:06:53.848Z,8.40
2024-03-12T06:09:24.063Z,8.05
2024-03-12T06:11:54.014Z,8.38
2024-03-12T06:14:26.489Z,8.20
2024-03-12T06:16:55.127Z,8.82
2024-03-12T06:19:23.742Z,7.82
2024-03-12T06:21:52.637Z,47.00
2024-03-12T06:24:21.260Z,46.60
2024-03-12T06:26:52.286Z,46.33
2024-03-12T06:29:25.083Z,47.53
2024-03-12T06:31:53.703Z,42.25
2024-03-12T06:34:22.514Z,44.63
2024-03-12T06:36:57.548Z,42.42
2024-03-12T06:39:32.727Z,34.92
2024-03-12T06:42:06.672Z,17.05
2024-03-12T06:44:41.878Z,14.43
2024-03-12T06:47:10.950Z,8.15
2024-03-12T06:49:44.324Z,5.72
2024-03-12T06:52:13.269Z,4.60
2024-03-12T06:54:42.601Z,4.70
2024-03-12T06:57:12.263Z,4.22
2024-03-12T06:59:48.418Z,3.92
2024-03-12T07:02:19.305Z,3.95
2024-03-12T07:04:50.120Z,3.83
2024-03-12T07:07:21.231Z,4.68
2024-03-12T07:09:50.658Z,3.72
2024-03-12T07:12:20.003Z,3.40
2024-03-12T07:14:56.243Z,3.78
2024-03-12T07:17:26.758Z,3.40
2024-03-12T07:19:59.224Z,3.47
2024-03-12T07:22:27.846Z,3.30
2024-03-12T07:24:57.002Z,3.10
2024-03-12T07:27:25.965Z,3.55
2024-03-12T07:29:56.503Z,3.58
2024-03-12T07:32:25.134Z,4.30
2024-03-12T07:34:53.827Z,4.05
2024-03-12T07:37:22.489Z,3.75
2024-03-12T07:39:51.137Z,4.07
2024-03-12T07:42:20.959Z,3.70
2024-03-12T07:44:49.725Z,3.80
2024-03-12T07:47:19.789Z,4.05
2024-03-12T07:49:48.381Z,3.42
2024-03-12T07:52:16.949Z,3.15
2024-03-12T07:54:45.649Z,3.17
2024-03-12T07:57:15.836Z,3.35
2024-03-12T07:59:45.700Z,3.17
2024-03-12T08:02:16.785Z,3.67
2024-03-12T08:04:47.226Z,3.15
2024-03-12T08:07:16.780Z,3.28
2024-03-12T08:09:45.687Z,3.20
2024-03-12T08:12:17.621Z,3.22
2024-03-12T08:14:46.934Z,3.22
2024-03-12T08:17:16.265Z,2.90
2024-03-12T08:19:49.548Z,2.75
2024-03-12T08:22:20.747Z,3.20
2024-03-12T08:24:51.721Z,3.50
2024-03-12T08:27:20.698Z,2.95
2024-03-12T08:29:49.395Z,2.97
2024-03-12T08:32:18.116Z,2.97
2024-03-12T08:34:48.144Z,2.83
2024-03-12T08:37:17.242Z,3.47
2024-03-12T08:39:45.899Z,2.55
2024-03-12T08:42:14.613Z,2.97
2024-03-12T08:44:44.489Z,3.42
2024-03-12T08:47:13.103Z,3.15
2024-03-12T08:49:42.182Z,2.83
2024-03-12T08:52:12.201Z,2.80
2024-03-12T08:54:40.862Z,2.60
2024-03-12T08:57:09.953Z,2.60
2024-03-12T08:59:38.728Z,2.50
2024-03-12T09:02:07.798Z,2.50
2024-03-12T09:04:36.390Z,2.47
2024-03-12T09:07:05.109Z,2.95
2024-03-12T09:09:35.857Z,2.95
2024-03-12T09:12:04.779Z,2.22
2024-03-12T09:14:33.692Z,2.30
2024-03-12T09:17:02.810Z,2.22
2024-03-12T09:19:31.287Z,2.40
2024-03-12T09:22:01.229Z,2.60
2024-03-12T09:24:31.478Z,2.30
2024-03-12T09:27:01.507Z,2.50
2024-03-12T09:29:30.095Z,2.10
2024-03-12T09:32:00.272Z,2.33
2024-03-12T09:34:29.122Z,2.47
2024-03-12T09:36:57.700Z,2.50
2024-03-12T09:39:26.403Z,2.60
2024-03-12T09:41:56.684Z,2.30
2024-03-12T09:44:27.083Z,2.60
2024-03-12T09:46:55.940Z,2.70
2024-03-12T09:49:24.957Z,2.30
2024-03-12T09:51:53.507Z,2.83
2024-03-12T09:54:22.736Z,2.47
2024-03-12T09:56:52.097Z,2.50
2024-03-12T09:59:21.335Z,2.50
2024-03-12T10:01:51.330Z,2.78
2024-03-12T10:04:20.169Z,2.63
2024-03-12T10:06:50.352Z,2.65
2024-03-12T10:09:19.408Z,2.70
2024-03-12T10:11:47.926Z,2.70
2024-03-12T10:14:21.174Z,2.47
2024-03-12T10:16:51.606Z,2.10
2024-03-12T10:19:26.720Z,2.58
2024-03-12T10:21:55.358Z,2.30
2024-03-12T10:24:24.005Z,2.65
2024-03-12T10:27:05.693Z,2.15
2024-03-12T10:29:37.513Z,2.63
2024-03-12T10:32:21.907Z,2.47
2024-03-12T10:34:51.139Z,2.50
2024-03-12T10:37:31.160Z,2.10
2024-03-12T10:40:16.539Z,2.23
2024-03-12T10:42:54.174Z,2.25
2024-03-12T10:45:24.217Z,2.28
2024-03-12T10:47:54.865Z,2.40
2024-03-12T10:50:24.502Z,2.40
2024-03-12T10:52:55.764Z,2.33
2024-03-12T10:55:25.215Z,2.30
2024-03-12T10:57:56.814Z,2.40
2024-03-12T11:00:27.741Z,2.20
2024-03-12T11:02:58.267Z,2.50
2024-03-12T11:05:29.427Z,1.92
2024-03-12T11:08:01.589Z,2.20
2024-03-12T11:10:34.009Z,2.30
2024-03-12T11:13:04.107Z,2.25
2024-03-12T11:15:34.486Z,2.45
2024-03-12T11:18:06.654Z,2.00
2024-03-12T11:20:35.946Z,2.13
2024-03-12T11:23:04.956Z,2.28
2024-03-12T11:25:35.074Z,2.10
2024-03-12T11:28:20.653Z,2.13
2024-03-12T11:30:50.839Z,2.10
2024-03-12T11:33:51.030Z,2.83
2024-03-12T11:36:29.906Z,2.00
2024-03-12T11:39:12.884Z,2.08
2024-03-12T11:42:15.368Z,2.30
2024-03-12T11:44:53.813Z,2.60
2024-03-12T11:47:36.115Z,2.10
2024-03-12T11:50:27.886Z,1.92
2024-03-12T11:53:10.344Z,2.10
2024-03-12T11:56:00.964Z,2.33
2024-03-12T11:58:33.047Z,2.15
2024-03-12T12:01:02.783Z,2.25
2024-03-12T12:03:31.414Z,1.98
2024-03-12T12:06:04.267Z,2.35
2024-03-12T12:08:42.810Z,2.17
2024-03-12T12:11:19.755Z,2.15
2024-03-12T12:13:49.464Z,2.20
2024-03-12T12:16:19.775Z,2.70
2024-03-12T12:18:48.666Z,1.95
2024-03-12T12:21:19.983Z,1.90
2024-03-12T12:23:50.376Z,1.80
2024-03-12T12:26:22.592Z,2.60
2024-03-12T12:28:54.794Z,1.90
2024-03-12T12:31:25.428Z,1.98
2024-03-12T12:33:56.823Z,2.00
2024-03-12T12:36:33.019Z,2.03
2024-03-12T12:39:05.604Z,2.00
2024-03-12T12:41:36.441Z,2.20
2024-03-12T12:44:16.544Z,2.00
2024-03-12T12:46:46.850Z,2.05
2024-03-12T12:49:18.232Z,1.77
2024-03-12T12:51:49.157Z,1.90
2024-03-12T12:54:19.953Z,1.92
2024-03-12T12:56:50.468Z,1.85
2024-03-12T12:59:22.439Z,1.80
2024-03-12T13:01:51.508Z,1.92
2024-03-12T13:04:23.393Z,2.00
2024-03-12T13:06:55.806Z,2.03
2024-03-12T13:09:33.276Z,1.95
2024-03-12T13:12:03.133Z,2.10
2024-03-12T13:14:32.781Z,2.00
2024-03-12T13:17:01.805Z,1.67
2024-03-12T13:19:30.623Z,1.95
2024-03-12T13:22:01.764Z,2.05
2024-03-12T13:24:31.457Z,2.00
2024-03-12T13:27:00.330Z,2.03
2024-03-12T13:29:30.122Z,2.00
2024-03-12T13:31:59.540Z,1.83
2024-03-12T13:34:28.558Z,1.67
2024-03-12T13:36:57.792Z,2.00
2024-03-12T13:39:27.740Z,1.88
2024-03-12T13:41:56.426Z,1.80
2024-03-12T13:44:25.189Z,1.80
2024-03-12T13:46:54.463Z,1.85
2024-03-12T13:49:26.765Z,1.80
2024-03-12T13:51:55.490Z,1.60
2024-03-12T13:54:24.048Z,1.80
2024-03-12T13:56:53.970Z,2.10
2024-03-12T13:59:22.944Z,1.80
2024-03-12T14:01:52.966Z,1.80
2024-03-12T14:04:21.961Z,1.50
2024-03-12T14:06:50.650Z,1.70
2024-03-12T14:09:19.375Z,1.95
2024-03-12T14:11:48.234Z,1.80
2024-03-12T14:14:18.282Z,1.73
2024-03-12T14:16:47.010Z,1.50
2024-03-12T14:19:15.667Z,2.08
2024-03-12T14:21:44.278Z,1.58
2024-03-12T14:24:12.835Z,2.05
2024-03-12T14:26:41.372Z,1.70
2024-03-12T14:29:11.797Z,1.38
2024-03-12T14:31:42.681Z,1.73
2024-03-12T14:34:11.943Z,1.70
2024-03-12T14:36:41.375Z,1.90
2024-03-12T14:39:13.564Z,1.85
2024-03-12T14:41:42.913Z,1.77
2024-03-12T14:44:11.650Z,1.80
2024-03-12T14:46:42.851Z,1.70
2024-03-12T14:49:14.026Z,1.63
2024-03-12T14:51:43.256Z,1.88
2024-03-12T14:54:12.097Z,1.63
2024-03-12T14:56:41.612Z,2.03
2024-03-12T14:59:11.066Z,1.92
2024-03-12T15:01:41.869Z,1.63
2024-03-12T15:04:10.854Z,1.50
2024-03-12T15:06:42.385Z,1.80
2024-03-12T15:09:13.945Z,1.67
2024-03-12T15:11:43.818Z,1.60
2024-03-12T15:14:12.518Z,1.40
2024-03-12T15:16:43.076Z,1.80
2024-03-12T15:19:11.582Z,1.40
2024-03-12T15:21:40.269Z,2.20
2024-03-12T15:24:09.209Z,1.60
2024-03-12T15:26:37.776Z,2.03
2024-03-12T15:29:06.339Z,1.88
2024-03-12T15:31:34.984Z,1.90
2024-03-12T15:34:05.171Z,1.80
2024-03-12T15:36:33.919Z,1.77
2024-03-12T15:39:02.899Z,1.90
2024-03-12T15:41:32.368Z,1.77
2024-03-12T15:44:01.137Z,1.75
2024-03-12T15:46:29.801Z,1.80
2024-03-12T15:48:58.448Z,1.90
2024-03-12T15:51:29.971Z,1.50
2024-03-12T15:53:58.771Z,1.90
2024-03-12T15:56:27.243Z,1.70
2024-03-12T15:58:56.233Z,1.90
2024-03-12T16:01:25.123Z,1.75
2024-03-12T16:03:54.795Z,2.45
2024-03-12T16:06:24.684Z,5.80
2024-03-12T16:08:54.965Z,11.57
2024-03-12T16:11:23.645Z,37.22
2024-03-12T16:13:52.123Z,27.52
2024-03-12T16:16:20.879Z,26.08
2024-03-12T16:18:49.788Z,25.60
2024-03-12T16:21:18.912Z,26.02
2024-03-12T16:23:47.532Z,23.90
2024-03-12T16:26:18.393Z,23.83
2024-03-12T16:28:47.093Z,23.03
2024-03-12T16:31:16.529Z,24.95
2024-03-12T16:33:46.170Z,22.65
2024-03-12T16:36:15.846Z,22.42
2024-03-12T16:38:45.333Z,17.35
2024-03-12T16:41:14.549Z,15.98
2024-03-12T16:43:44.842Z,12.90
2024-03-12T16:46:13.424Z,11.27
2024-03-12T16:48:42.503Z,10.05
2024-03-12T16:51:11.407Z,9.25
2024-03-12T16:53:39.971Z,10.02
2024-03-12T16:56:10.524Z,9.05
2024-03-12T16:58:49.126Z,8.90
2024-03-12T17:01:21.208Z,8.38
2024-03-12T17:03:51.645Z,8.15
2024-03-12T17:06:22.359Z,8.82
2024-03-12T17:08:53.405Z,7.85
2024-03-12T17:11:22.423Z,6.63
2024-03-12T17:13:53.091Z,6.22
2024-03-12T17:16:24.597Z,6.47
2024-03-12T17:18:54.379Z,5.45
2024-03-12T17:21:28.782Z,5.70
2024-03-12T17:23:57.908Z,5.07
2024-03-12T17:26:26.896Z,5.50
2024-03-12T17:28:58.728Z,5.65
2024-03-12T17:31:30.220Z,4.97
2024-03-12T17:33:59.951Z,4.68
2024-03-12T17:36:29.448Z,4.93
2024-03-12T17:39:00.807Z,4.97
2024-03-12T17:41:30.166Z,4.50
2024-03-12T17:44:01.347Z,4.07
2024-03-12T17:46:31.032Z,3.83
2024-03-12T17:49:02.195Z,3.60
2024-03-12T17:51:31.541Z,3.30
2024-03-12T17:54:02.574Z,3.85
2024-03-12T17:56:36.324Z,3.88
2024-03-12T17:59:07.640Z,3.97
2024-03-12T18:01:36.586Z,3.72
2024-03-12T18:04:06.424Z,3.60
2024-03-12T18:06:36.389Z,3.38
2024-03-12T18:09:07.203Z,3.30
2024-03-12T18:11:36.846Z,3.47
2024-03-12T18:14:10.420Z,3.08
2024-03-12T18:16:39.545Z,3.17
2024-03-12T18:19:08.439Z,3.60
2024-03-12T18:21:38.245Z,3.50
2024-03-12T18:24:07.558Z,3.67
2024-03-12T18:26:36.256Z,2.75
2024-03-12T18:29:09.909Z,3.80
2024-03-12T18:31:38.481Z,2.83
2024-03-12T18:34:09.050Z,3.05
2024-03-12T18:36:37.810Z,2.83
2024-03-12T18:39:06.482Z,3.30
2024-03-12T18:41:35.196Z,4.75
2024-03-12T18:44:04.110Z,2.65
2024-03-12T18:46:34.108Z,2.70
2024-03-12T18:49:03.659Z,2.85
2024-03-12T18:51:36.261Z,2.92
2024-03-12T18:54:06.973Z,3.03
2024-03-12T18:56:36.550Z,3.90
2024-03-12T18:59:06.753Z,3.70
2024-03-12T19:01:41.217Z,4.88
2024-03-12T19:04:12.194Z,5.55
2024-03-12T19:06:41.398Z,4.93
2024-03-12T19:09:12.095Z,4.70
2024-03-12T19:11:41.384Z,4.80
2024-03-12T19:14:13.180Z,4.30
2024-03-12T19:16:49.383Z,4.47
2024-03-12T19:19:24.540Z,4.47
2024-03-12T19:21:54.371Z,4.90
2024-03-12T19:24:23.204Z,5.03
2024-03-12T19:26:52.352Z,4.93
2024-03-12T19:29:22.694Z,4.20
2024-03-12T19:31:54.433Z,4.65
2024-03-12T19:34:26.885Z,4.00
2024-03-12T19:36:56.154Z,3.80
2024-03-12T19:39:27.386Z,3.63
2024-03-12T19:41:57.907Z,3.97
2024-03-12T19:44:27.459Z,3.95
2024-03-12T19:46:58.720Z,3.38
2024-03-12T19:49:28.489Z,3.50
2024-03-12T19:51:57.749Z,3.75
2024-03-12T19:54:27.201Z,30.50
2024-03-12T19:56:58.319Z,44.30
2024-03-12T19:59:27.192Z,122.22
2024-03-12T20:01:57.731Z,949.83
2024-03-12T20:04:26.499Z,771.50
2024-03-12T20:06:55.167Z,661.47
2024-03-12T20:09:24.228Z,553.25
2024-03-12T20:11:53.386Z,503.00
2024-03-12T20:14:25.220Z,484.35
2024-03-12T20:16:54.061Z,353.00
2024-03-12T20:19:24.922Z,306.15
2024-03-12T20:21:53.571Z,233.75
2024-03-12T20:24:23.083Z,175.93
2024-03-12T20:26:52.729Z,176.07
2024-03-12T20:29:21.259Z,124.57
2024-03-12T20:31:49.870Z,109.18
2024-03-12T20:34:18.799Z,83.60
2024-03-12T20:36:49.828Z,55.08
2024-03-12T20:39:21.254Z,57.42
2024-03-12T20:41:49.935Z,47.05
2024-03-12T20:44:18.517Z,40.22
2024-03-12T20:46:47.836Z,37.55
2024-03-12T20:49:16.688Z,37.90
2024-03-12T20:51:47.285Z,36.42
2024-03-12T20:54:18.021Z,28.98
2024-03-12T20:56:46.823Z,25.70
2024-03-12T20:59:15.402Z,25.55
2024-03-12T21:01:45.005Z,24.10
2024-03-12T21:04:13.811Z,22.88
2024-03-12T21:06:42.422Z,22.25
2024-03-12T21:09:14.324Z,23.15
2024-03-12T21:11:44.430Z,22.60
2024-03-12T21:14:13.058Z,22.35
2024-03-12T21:16:42.812Z,20.67
2024-03-12T21:19:11.402Z,22.33
2024-03-12T21:21:40.056Z,22.00
2024-03-12T21:24:10.460Z,22.15
2024-03-12T21:26:38.972Z,18.48
2024-03-12T21:29:09.225Z,19.65
2024-03-12T21:31:38.368Z,16.92
2024-03-12T21:34:08.421Z,18.20
2024-03-12T21:36:38.376Z,14.75
2024-03-12T21:39:09.739Z,13.02
2024-03-12T21:41:39.841Z,13.52
2024-03-12T21:44:10.134Z,13.02
2024-03-12T21:46:38.706Z,12.18
2024-03-12T21:49:10.275Z,13.57
2024-03-12T21:51:39.606Z,13.25
2024-03-12T21:54:08.470Z,12.25
2024-03-12T21:56:37.146Z,13.20
2024-03-12T21:59:05.773Z,12.65
2024-03-12T22:01:37.178Z,12.07
2024-03-12T22:04:06.843Z,12.18
2024-03-12T22:06:35.703Z,11.95
2024-03-12T22:09:04.488Z,13.30
2024-03-12T22:11:33.468Z,12.00
2024-03-12T22:14:03.134Z,10.70
2024-03-12T22:16:31.864Z,11.60
2024-03-12T22:19:05.660Z,12.07
2024-03-12T22:21:34.370Z,13.23
2024-03-12T22:24:03.341Z,11.15
2024-03-12T22:26:32.360Z,11.07
2024-03-12T22:29:01.336Z,11.80
2024-03-12T22:31:30.161Z,11.57
2024-03-12T22:33:59.976Z,10.90
2024-03-12T22:36:30.017Z,10.50
2024-03-12T22:38:59.882Z,10.20
2024-03-12T22:41:29.317Z,11.05
2024-03-12T22:43:58.922Z,10.32
2024-03-12T22:46:28.877Z,9.85
2024-03-12T22:48:58.803Z,10.90
2024-03-12T22:51:30.033Z,10.63
2024-03-12T22:53:59.196Z,10.82
2024-03-12T22:56:28.612Z,10.77
2024-03-12T22:58:59.201Z,10.27
2024-03-12T23:01:29.893Z,10.82
2024-03-12T23:04:00.371Z,11.68
2024-03-12T23:06:32.441Z,11.50
2024-03-12T23:09:02.337Z,11.15
2024-03-12T23:11:32.240Z,12.05
2024-03-12T23:14:00.682Z,11.13
2024-03-12T23:16:29.830Z,11.13
2024-03-12T23:18:58.402Z,11.38
2024-03-12T23:21:31.227Z,11.60
2024-03-12T23:23:59.854Z,11.93
2024-03-12T23:26:29.732Z,10.40
2024-03-12T23:28:59.607Z,11.02
2024-03-12T23:31:28.394Z,10.57
2024-03-12T23:33:57.172Z,10.88
2024-03-12T23:36:28.713Z,10.10
2024-03-12T23:38:59.140Z,10.77
2024-03-12T23:41:28.040Z,10.73
2024-03-12T23:43:57.165Z,11.10
2024-03-12T23:46:26.463Z,9.77
2024-03-12T23:48:56.539Z,9.85
2024-03-12T23:51:26.929Z,8.90
2024-03-12T23:53:55.683Z,9.48
2024-03-12T23:56:27.329Z,10.27
2024-03-12T23:58:58.952Z,10.00
